Time,TemperatureF,DewpointF,PressureIn,WindDirection,WindDirectionDegrees,WindSpeedMPH,WindSpeedGustMPH,Humidity,HourlyPrecipIn,Conditions,Clouds,dailyrainin,SoftwareType,DateUTC
2013-05-15 00:04:00,75.9,55.9,29.61,SW,225,13.0,15.0,50,0.00,,,0.00,meteohub,2013-05-15 05:04:00,
2013-05-15 00:09:00,75.7,55.8,29.62,NNW,338,11.0,14.0,50,0.00,,,0.00,meteohub,2013-05-15 05:09:00,
2013-05-15 00:14:00,75.6,55.6,29.62,WSW,248,11.0,14.0,50,0.00,,,0.00,meteohub,2013-05-15 05:14:00,
2013-05-15 00:19:00,75.4,55.4,29.62,West,270,10.0,15.0,50,0.00,,,0.00,meteohub,2013-05-15 05:19:00,
2013-05-15 00:24:00,75.0,55.6,29.62,WSW,248,10.0,15.0,51,0.00,,,0.00,meteohub,2013-05-15 05:24:00,
2013-05-15 00:29:00,74.8,55.6,29.62,West,270,11.0,15.0,51,0.00,,,0.00,meteohub,2013-05-15 05:29:00,
2013-05-15 00:34:00,74.5,55.8,29.62,SW,225,11.0,14.0,52,0.00,,,0.00,meteohub,2013-05-15 05:34:00,
2013-05-15 00:39:00,74.1,55.4,29.62,SW,225,10.0,15.0,52,0.00,,,0.00,meteohub,2013-05-15 05:39:00,
2013-05-15 00:44:00,73.6,55.4,29.63,WSW,248,9.0,15.0,53,0.00,,,0.00,meteohub,2013-05-15 05:44:00,
2013-05-15 00:50:00,73.4,55.2,29.63,SW,225,9.0,15.0,53,0.00,,,0.00,meteohub,2013-05-15 05:50:00,
2013-05-15 00:55:00,73.0,55.4,29.63,SW,225,11.0,11.0,54,0.00,,,0.00,meteohub,2013-05-15 05:55:00,
2013-05-15 01:00:00,72.5,54.9,29.63,WNW,293,8.0,10.0,54,0.00,,,0.00,meteohub,2013-05-15 06:00:00,
2013-05-15 01:05:00,72.5,54.9,29.63,WNW,293,8.0,11.0,54,0.00,,,0.00,meteohub,2013-05-15 06:05:00,
2013-05-15 01:10:00,72.5,55.4,29.63,West,270,10.0,14.0,55,0.00,,,0.00,meteohub,2013-05-15 06:10:00,
2013-05-15 01:15:00,72.5,55.4,29.63,West,270,6.0,14.0,55,0.00,,,0.00,meteohub,2013-05-15 06:15:00,
2013-05-15 01:20:00,72.1,55.6,29.63,SW,225,9.0,14.0,56,0.00,,,0.00,meteohub,2013-05-15 06:20:00,
2013-05-15 01:25:00,71.6,55.0,29.64,West,270,7.0,11.0,56,0.00,,,0.00,meteohub,2013-05-15 06:25:00,
2013-05-15 01:30:00,71.2,54.7,29.64,NW,315,10.0,10.0,56,0.00,,,0.00,meteohub,2013-05-15 06:30:00,
2013-05-15 01:35:00,71.2,54.3,29.63,NW,315,9.0,11.0,55,0.00,,,0.00,meteohub,2013-05-15 06:35:00,
2013-05-15 01:40:00,71.2,52.7,29.64,West,270,7.0,11.0,52,0.00,,,0.00,meteohub,2013-05-15 06:40:00,
2013-05-15 01:45:00,71.6,49.6,29.64,NW,315,8.0,11.0,46,0.00,,,0.00,meteohub,2013-05-15 06:45:00,
2013-05-15 01:50:00,72.3,46.0,29.64,NE,45,11.0,11.0,39,0.00,,,0.00,meteohub,2013-05-15 06:50:00,
2013-05-15 01:56:00,72.9,44.4,29.64,West,270,8.0,11.0,36,0.00,,,0.00,meteohub,2013-05-15 06:56:00,
2013-05-15 02:01:00,73.8,43.7,29.65,North,0,9.0,11.0,34,0.00,,,0.00,meteohub,2013-05-15 07:01:00,
2013-05-15 02:06:00,73.8,43.7,29.65,North,0,9.0,11.0,34,0.00,,,0.00,meteohub,2013-05-15 07:06:00,
2013-05-15 02:11:00,74.1,41.5,29.65,WNW,293,9.0,9.0,31,0.00,,,0.00,meteohub,2013-05-15 07:11:00,
2013-05-15 02:16:00,74.3,40.8,29.65,South,180,12.0,12.0,30,0.00,,,0.00,meteohub,2013-05-15 07:16:00,
2013-05-15 02:21:00,74.1,39.9,29.65,West,270,11.0,12.0,29,0.00,,,0.00,meteohub,2013-05-15 07:21:00,
2013-05-15 02:26:00,74.1,39.0,29.66,West,270,8.0,15.0,28,0.00,,,0.00,meteohub,2013-05-15 07:26:00,
2013-05-15 02:31:00,73.6,38.5,29.67,West,270,9.0,15.0,28,0.00,,,0.00,meteohub,2013-05-15 07:31:00,
2013-05-15 02:36:00,73.2,38.1,29.67,NW,315,8.0,15.0,28,0.00,,,0.00,meteohub,2013-05-15 07:36:00,
2013-05-15 02:41:00,73.0,37.9,29.67,NW,315,6.0,10.0,28,0.00,,,0.00,meteohub,2013-05-15 07:41:00,
2013-05-15 02:46:00,72.9,36.9,29.67,NW,315,8.0,11.0,27,0.00,,,0.00,meteohub,2013-05-15 07:46:00,
2013-05-15 02:51:00,72.7,35.8,29.67,NW,315,9.0,11.0,26,0.00,,,0.00,meteohub,2013-05-15 07:51:00,
2013-05-15 02:56:00,72.5,36.7,29.67,NW,315,4.0,11.0,27,0.00,,,0.00,meteohub,2013-05-15 07:56:00,
2013-05-15 03:01:00,71.8,36.0,29.67,West,270,5.0,11.0,27,0.00,,,0.00,meteohub,2013-05-15 08:01:00,
2013-05-15 03:06:00,71.8,36.0,29.67,West,270,5.0,11.0,27,0.00,,,0.00,meteohub,2013-05-15 08:06:00,
2013-05-15 03:11:00,70.9,35.2,29.67,West,270,6.0,8.0,27,0.00,,,0.00,meteohub,2013-05-15 08:11:00,
2013-05-15 03:17:00,70.7,35.1,29.67,NW,315,5.0,6.0,27,0.00,,,0.00,meteohub,2013-05-15 08:17:00,
2013-05-15 03:22:00,70.5,34.9,29.67,SW,225,5.0,6.0,27,0.00,,,0.00,meteohub,2013-05-15 08:22:00,
2013-05-15 03:27:00,70.5,34.9,29.68,SW,225,4.0,6.0,27,0.00,,,0.00,meteohub,2013-05-15 08:27:00,
2013-05-15 03:32:00,70.3,34.7,29.68,East,90,4.0,7.0,27,0.00,,,0.00,meteohub,2013-05-15 08:32:00,
2013-05-15 03:37:00,70.0,34.5,29.68,West,270,8.0,8.0,27,0.00,,,0.00,meteohub,2013-05-15 08:37:00,
2013-05-15 03:42:00,70.0,34.5,29.68,West,270,7.0,8.0,27,0.00,,,0.00,meteohub,2013-05-15 08:42:00,
2013-05-15 03:47:00,69.8,34.3,29.68,NNW,338,5.0,10.0,27,0.00,,,0.00,meteohub,2013-05-15 08:47:00,
2013-05-15 03:52:00,69.6,34.2,29.69,NNE,23,5.0,10.0,27,0.00,,,0.00,meteohub,2013-05-15 08:52:00,
2013-05-15 03:57:00,69.1,33.6,29.69,NW,315,4.0,9.0,27,0.00,,,0.00,meteohub,2013-05-15 08:57:00,
2013-05-15 04:02:00,68.9,33.6,29.69,West,270,7.0,9.0,27,0.00,,,0.00,meteohub,2013-05-15 09:02:00,
2013-05-15 04:07:00,68.9,33.6,29.70,West,270,7.0,7.0,27,0.00,,,0.00,meteohub,2013-05-15 09:07:00,
2013-05-15 04:12:00,68.2,34.7,29.69,West,270,2.0,7.0,29,0.00,,,0.00,meteohub,2013-05-15 09:12:00,
2013-05-15 04:17:00,68.0,33.6,29.70,West,270,4.0,7.0,28,0.00,,,0.00,meteohub,2013-05-15 09:17:00,
2013-05-15 04:22:00,67.8,34.3,29.70,West,270,5.0,7.0,29,0.00,,,0.00,meteohub,2013-05-15 09:22:00,
2013-05-15 04:27:00,67.6,33.4,29.70,West,270,6.0,7.0,28,0.00,,,0.00,meteohub,2013-05-15 09:27:00,
2013-05-15 04:32:00,67.8,33.4,29.70,West,270,7.0,7.0,28,0.00,,,0.00,meteohub,2013-05-15 09:32:00,
2013-05-15 04:37:00,68.0,33.6,29.70,North,0,6.0,10.0,28,0.00,,,0.00,meteohub,2013-05-15 09:37:00,
2013-05-15 04:42:00,68.5,34.2,29.71,SE,135,7.0,11.0,28,0.00,,,0.00,meteohub,2013-05-15 09:42:00,
2013-05-15 04:47:00,68.7,34.3,29.71,NE,45,8.0,11.0,28,0.00,,,0.00,meteohub,2013-05-15 09:47:00,
2013-05-15 04:52:00,68.7,34.3,29.72,East,90,5.0,11.0,28,0.00,,,0.00,meteohub,2013-05-15 09:52:00,
2013-05-15 04:57:00,68.4,34.9,29.72,NE,45,7.0,11.0,29,0.00,,,0.00,meteohub,2013-05-15 09:57:00,
2013-05-15 05:02:00,68.0,34.5,29.72,West,270,4.0,11.0,29,0.00,,,0.00,meteohub,2013-05-15 10:02:00,
2013-05-15 05:07:00,68.0,34.5,29.71,West,270,4.0,11.0,29,0.00,,,0.00,meteohub,2013-05-15 10:07:00,
2013-05-15 05:12:00,67.1,34.7,29.71,North,0,2.0,11.0,30,0.00,,,0.00,meteohub,2013-05-15 10:12:00,
2013-05-15 05:17:00,66.9,34.5,29.72,West,270,4.0,7.0,30,0.00,,,0.00,meteohub,2013-05-15 10:17:00,
2013-05-15 05:22:00,66.7,34.3,29.71,SW,225,8.0,11.0,30,0.00,,,0.00,meteohub,2013-05-15 10:22:00,
2013-05-15 05:27:00,66.7,34.3,29.72,NW,315,5.0,11.0,30,0.00,,,0.00,meteohub,2013-05-15 10:27:00,
2013-05-15 05:32:00,66.6,35.1,29.72,NE,45,4.0,11.0,31,0.00,,,0.00,meteohub,2013-05-15 10:32:00,
2013-05-15 05:37:00,66.4,34.9,29.73,NW,315,5.0,8.0,31,0.00,,,0.00,meteohub,2013-05-15 10:37:00,
2013-05-15 05:42:00,66.0,34.5,29.73,North,0,5.0,8.0,31,0.00,,,0.00,meteohub,2013-05-15 10:42:00,
2013-05-15 05:47:00,66.0,35.2,29.73,NNW,338,7.0,8.0,32,0.00,,,0.00,meteohub,2013-05-15 10:47:00,
2013-05-15 05:52:00,65.8,35.2,29.73,North,0,6.0,8.0,32,0.00,,,0.00,meteohub,2013-05-15 10:52:00,
2013-05-15 05:57:00,65.8,36.0,29.74,NNW,338,4.0,7.0,33,0.00,,,0.00,meteohub,2013-05-15 10:57:00,
2013-05-15 06:02:00,65.8,36.0,29.75,West,270,8.0,8.0,33,0.00,,,0.00,meteohub,2013-05-15 11:02:00,
2013-05-15 06:08:00,65.8,36.0,29.75,NNE,23,7.0,8.0,33,0.00,,,0.00,meteohub,2013-05-15 11:08:00,
2013-05-15 06:13:00,66.0,36.1,29.75,WNW,293,8.0,8.0,33,0.00,,,0.00,meteohub,2013-05-15 11:13:00,
2013-05-15 06:19:00,66.2,37.0,29.75,West,270,5.0,8.0,34,0.00,,,0.00,meteohub,2013-05-15 11:19:00,
2013-05-15 06:24:00,66.2,37.0,29.76,West,270,7.0,8.0,34,0.00,,,0.00,meteohub,2013-05-15 11:24:00,
2013-05-15 06:29:00,66.2,37.0,29.76,NW,315,4.0,8.0,34,0.00,,,0.00,meteohub,2013-05-15 11:29:00,
2013-05-15 06:34:00,66.2,37.0,29.77,North,0,4.0,8.0,34,0.00,,,0.00,meteohub,2013-05-15 11:34:00,
2013-05-15 06:40:00,66.2,37.8,29.77,NW,315,4.0,8.0,35,0.00,,,0.00,meteohub,2013-05-15 11:40:00,
2013-05-15 06:45:00,66.2,37.8,29.77,East,90,9.0,9.0,35,0.00,,,0.00,meteohub,2013-05-15 11:45:00,
2013-05-15 06:51:00,66.6,38.1,29.78,SW,225,2.0,9.0,35,0.00,,,0.00,meteohub,2013-05-15 11:51:00,
2013-05-15 06:56:00,66.7,39.0,29.78,West,270,9.0,9.0,36,0.00,,,0.00,meteohub,2013-05-15 11:56:00,
2013-05-15 07:01:00,66.9,39.0,29.78,North,0,5.0,10.0,36,0.00,,,0.00,meteohub,2013-05-15 12:01:00,
2013-05-15 07:07:00,67.1,39.2,29.78,North,0,5.0,10.0,36,0.00,,,0.00,meteohub,2013-05-15 12:07:00,
2013-05-15 07:12:00,67.3,39.4,29.79,NE,45,8.0,10.0,36,0.00,,,0.00,meteohub,2013-05-15 12:12:00,
2013-05-15 07:17:00,67.1,39.9,29.79,NW,315,13.0,13.0,37,0.00,,,0.00,meteohub,2013-05-15 12:17:00,
2013-05-15 07:22:00,67.1,40.6,29.80,WNW,293,7.0,16.0,38,0.00,,,0.00,meteohub,2013-05-15 12:22:00,
2013-05-15 07:27:00,67.5,41.0,29.79,WSW,248,9.0,16.0,38,0.00,,,0.00,meteohub,2013-05-15 12:27:00,
2013-05-15 07:33:00,67.5,41.7,29.79,WNW,293,9.0,16.0,39,0.00,,,0.00,meteohub,2013-05-15 12:33:00,
2013-05-15 07:38:00,67.3,41.5,29.79,North,0,10.0,18.0,39,0.00,,,0.00,meteohub,2013-05-15 12:38:00,
2013-05-15 07:43:00,67.5,41.7,29.80,North,0,9.0,18.0,39,0.00,,,0.00,meteohub,2013-05-15 12:43:00,
2013-05-15 07:48:00,67.5,41.7,29.80,NW,315,15.0,18.0,39,0.00,,,0.00,meteohub,2013-05-15 12:48:00,
2013-05-15 07:54:00,67.6,43.2,29.81,North,0,10.0,15.0,41,0.00,,,0.00,meteohub,2013-05-15 12:54:00,
2013-05-15 07:59:00,67.5,42.3,29.81,North,0,15.0,15.0,40,0.00,,,0.00,meteohub,2013-05-15 12:59:00,
2013-05-15 08:04:00,67.1,43.2,29.81,NW,315,17.0,17.0,42,0.00,,,0.00,meteohub,2013-05-15 13:04:00,
2013-05-15 08:10:00,66.9,43.2,29.81,SW,225,17.0,23.0,42,0.00,,,0.00,meteohub,2013-05-15 13:10:00,
2013-05-15 08:15:00,66.7,43.5,29.82,NW,315,11.0,23.0,43,0.00,,,0.00,meteohub,2013-05-15 13:15:00,
2013-05-15 08:21:00,66.7,44.1,29.83,North,0,10.0,23.0,44,0.00,,,0.00,meteohub,2013-05-15 13:21:00,
2013-05-15 08:26:00,66.9,43.7,29.83,North,0,10.0,18.0,43,0.00,,,0.00,meteohub,2013-05-15 13:26:00,
2013-05-15 08:31:00,67.1,43.9,29.83,North,0,17.0,18.0,43,0.00,,,0.00,meteohub,2013-05-15 13:31:00,
2013-05-15 08:37:00,67.1,44.4,29.83,NNW,338,14.0,18.0,44,0.00,,,0.00,meteohub,2013-05-15 13:37:00,
2013-05-15 08:42:00,66.9,43.7,29.83,North,0,20.0,20.0,43,0.00,,,0.00,meteohub,2013-05-15 13:42:00,
2013-05-15 08:47:00,66.9,44.2,29.84,NE,45,15.0,20.0,44,0.00,,,0.00,meteohub,2013-05-15 13:47:00,
2013-05-15 08:52:00,66.9,43.7,29.84,NNE,23,17.0,21.0,43,0.00,,,0.00,meteohub,2013-05-15 13:52:00,
2013-05-15 08:57:00,67.1,44.4,29.84,NW,315,9.0,21.0,44,0.00,,,0.00,meteohub,2013-05-15 13:57:00,
2013-05-15 09:02:00,67.1,44.4,29.84,NE,45,7.0,21.0,44,0.00,,,0.00,meteohub,2013-05-15 14:02:00,
2013-05-15 09:08:00,67.3,44.6,29.85,NNE,23,16.0,17.0,44,0.00,,,0.00,meteohub,2013-05-15 14:08:00,
2013-05-15 09:14:00,66.9,44.2,29.85,NW,315,9.0,17.0,44,0.00,,,0.00,meteohub,2013-05-15 14:14:00,
2013-05-15 09:19:00,66.9,45.0,29.85,North,0,13.0,20.0,45,0.00,,,0.00,meteohub,2013-05-15 14:19:00,
2013-05-15 09:25:00,67.3,45.9,29.85,North,0,8.0,20.0,46,0.00,,,0.00,meteohub,2013-05-15 14:25:00,
2013-05-15 09:30:00,67.5,43.5,29.85,WSW,248,17.0,17.0,42,0.00,,,0.00,meteohub,2013-05-15 14:30:00,
2013-05-15 09:35:00,67.6,45.5,29.86,North,0,8.0,17.0,45,0.01,,,0.01,meteohub,2013-05-15 14:35:00,
2013-05-15 09:41:00,68.2,45.5,29.86,North,0,8.0,17.0,44,0.01,,,0.01,meteohub,2013-05-15 14:41:00,
2013-05-15 09:46:00,68.2,44.2,29.86,NE,45,9.0,17.0,42,0.04,,,0.04,meteohub,2013-05-15 14:46:00,
2013-05-15 09:51:00,68.4,45.7,29.85,North,0,7.0,15.0,44,0.04,,,0.04,meteohub,2013-05-15 14:51:00,
2013-05-15 09:57:00,68.5,44.6,29.86,NW,315,10.0,15.0,42,0.04,,,0.04,meteohub,2013-05-15 14:57:00,
2013-05-15 10:02:00,68.9,44.8,29.86,NNE,23,14.0,14.0,42,0.04,,,0.04,meteohub,2013-05-15 15:02:00,
2013-05-15 10:07:00,68.9,43.5,29.86,NW,315,11.0,14.0,40,0.04,,,0.04,meteohub,2013-05-15 15:07:00,
2013-05-15 10:12:00,69.1,45.0,29.86,North,0,8.0,16.0,42,0.04,,,0.04,meteohub,2013-05-15 15:12:00,
2013-05-15 10:18:00,69.6,45.0,29.87,North,0,4.0,16.0,41,0.04,,,0.04,meteohub,2013-05-15 15:18:00,
2013-05-15 10:23:00,70.2,44.8,29.86,North,0,11.0,16.0,40,0.04,,,0.04,meteohub,2013-05-15 15:23:00,
2013-05-15 10:28:00,70.3,45.5,29.86,North,0,6.0,14.0,41,0.04,,,0.04,meteohub,2013-05-15 15:28:00,
2013-05-15 10:33:00,70.9,44.8,29.86,North,0,12.0,14.0,39,0.02,,,0.04,meteohub,2013-05-15 15:33:00,
2013-05-15 10:39:00,70.7,43.9,29.86,NE,45,7.0,14.0,38,0.02,,,0.04,meteohub,2013-05-15 15:39:00,
2013-05-15 10:44:00,71.2,43.0,29.87,NW,315,12.0,12.0,36,0.02,,,0.04,meteohub,2013-05-15 15:44:00,
2013-05-15 10:49:00,71.1,42.1,29.87,NE,45,14.0,14.0,35,0.00,,,0.04,meteohub,2013-05-15 15:49:00,
2013-05-15 10:54:00,71.2,43.7,29.87,West,270,10.0,15.0,37,0.00,,,0.04,meteohub,2013-05-15 15:54:00,
2013-05-15 11:00:00,71.4,43.2,29.87,North,0,9.0,15.0,36,0.00,,,0.04,meteohub,2013-05-15 16:00:00,
2013-05-15 11:05:00,71.4,41.5,29.87,NW,315,15.0,15.0,34,0.00,,,0.04,meteohub,2013-05-15 16:05:00,
2013-05-15 11:10:00,71.4,43.7,29.86,NNE,23,8.0,16.0,37,0.00,,,0.04,meteohub,2013-05-15 16:10:00,
2013-05-15 11:16:00,71.8,44.1,29.87,NE,45,6.0,16.0,37,0.00,,,0.04,meteohub,2013-05-15 16:16:00,
2013-05-15 11:21:00,72.3,39.9,29.87,NE,45,17.0,17.0,31,0.00,,,0.04,meteohub,2013-05-15 16:21:00,
2013-05-15 11:26:00,71.8,41.2,29.87,North,0,14.0,17.0,33,0.00,,,0.04,meteohub,2013-05-15 16:26:00,
2013-05-15 11:31:00,71.8,41.9,29.87,North,0,14.0,19.0,34,0.00,,,0.04,meteohub,2013-05-15 16:31:00,
2013-05-15 11:36:00,71.8,42.6,29.87,NE,45,11.0,19.0,35,0.00,,,0.04,meteohub,2013-05-15 16:36:00,
2013-05-15 11:41:00,72.5,41.7,29.86,North,0,11.0,19.0,33,0.00,,,0.04,meteohub,2013-05-15 16:41:00,
2013-05-15 11:47:00,72.5,42.6,29.86,North,0,6.0,14.0,34,0.00,,,0.04,meteohub,2013-05-15 16:47:00,
2013-05-15 11:52:00,72.7,41.2,29.87,WNW,293,16.0,16.0,32,0.00,,,0.04,meteohub,2013-05-15 16:52:00,
2013-05-15 11:57:00,72.1,41.4,29.87,North,0,8.0,16.0,33,0.00,,,0.04,meteohub,2013-05-15 16:57:00,
2013-05-15 12:02:00,73.0,41.4,29.86,NW,315,3.0,16.0,32,0.00,,,0.04,meteohub,2013-05-15 17:02:00,
2013-05-15 12:07:00,73.4,40.1,29.87,NE,45,13.0,16.0,30,0.00,,,0.04,meteohub,2013-05-15 17:07:00,
2013-05-15 12:12:00,73.4,39.2,29.86,North,0,12.0,17.0,29,0.00,,,0.04,meteohub,2013-05-15 17:12:00,
2013-05-15 12:17:00,73.2,38.1,29.86,North,0,11.0,17.0,28,0.00,,,0.04,meteohub,2013-05-15 17:17:00,
2013-05-15 12:23:00,73.4,37.4,29.86,NNE,23,9.0,17.0,27,0.00,,,0.04,meteohub,2013-05-15 17:23:00,
2013-05-15 12:28:00,73.4,35.4,29.86,North,0,11.0,17.0,25,0.00,,,0.04,meteohub,2013-05-15 17:28:00,
2013-05-15 12:34:00,73.9,40.5,29.86,North,0,11.0,12.0,30,0.00,,,0.04,meteohub,2013-05-15 17:34:00,
2013-05-15 12:39:00,73.4,40.1,29.87,North,0,8.0,11.0,30,0.00,,,0.04,meteohub,2013-05-15 17:39:00,
2013-05-15 12:45:00,73.6,38.5,29.87,NE,45,11.0,14.0,28,0.00,,,0.04,meteohub,2013-05-15 17:45:00,
2013-05-15 12:50:00,74.3,42.6,29.87,NE,45,12.0,14.0,32,0.00,,,0.04,meteohub,2013-05-15 17:50:00,
2013-05-15 12:55:00,75.2,41.7,29.86,West,270,11.0,14.0,30,0.00,,,0.04,meteohub,2013-05-15 17:55:00,
2013-05-15 13:00:00,74.8,41.4,29.87,NW,315,6.0,12.0,30,0.00,,,0.04,meteohub,2013-05-15 18:00:00,
2013-05-15 13:06:00,74.5,42.6,29.87,North,0,6.0,11.0,32,0.00,,,0.04,meteohub,2013-05-15 18:06:00,
2013-05-15 13:11:00,74.3,39.0,29.88,North,0,10.0,11.0,28,0.00,,,0.04,meteohub,2013-05-15 18:11:00,
2013-05-15 13:16:00,74.1,37.9,29.87,North,0,10.0,11.0,27,0.00,,,0.04,meteohub,2013-05-15 18:16:00,
2013-05-15 13:22:00,74.5,38.3,29.87,NW,315,6.0,11.0,27,0.00,,,0.04,meteohub,2013-05-15 18:22:00,
2013-05-15 13:27:00,75.2,38.8,29.86,North,0,5.0,11.0,27,0.00,,,0.04,meteohub,2013-05-15 18:27:00,
2013-05-15 13:32:00,75.4,40.1,29.86,NW,315,7.0,11.0,28,0.00,,,0.04,meteohub,2013-05-15 18:32:00,
2013-05-15 13:37:00,75.4,38.1,29.86,NE,45,6.0,9.0,26,0.00,,,0.04,meteohub,2013-05-15 18:37:00,
2013-05-15 13:43:00,75.0,37.8,29.87,North,0,4.0,12.0,26,0.00,,,0.04,meteohub,2013-05-15 18:43:00,
2013-05-15 13:48:00,74.8,36.7,29.86,North,0,9.0,12.0,25,0.00,,,0.04,meteohub,2013-05-15 18:48:00,
2013-05-15 13:53:00,75.0,37.8,29.86,West,270,2.0,12.0,26,0.00,,,0.04,meteohub,2013-05-15 18:53:00,
2013-05-15 13:58:00,75.9,39.6,29.86,West,270,8.0,10.0,27,0.00,,,0.04,meteohub,2013-05-15 18:58:00,
2013-05-15 14:04:00,76.1,39.7,29.86,NE,45,8.0,10.0,27,0.00,,,0.04,meteohub,2013-05-15 19:04:00,
2013-05-15 14:09:00,75.4,36.1,29.86,North,0,6.0,10.0,24,0.00,,,0.04,meteohub,2013-05-15 19:09:00,
2013-05-15 14:15:00,75.7,38.5,29.85,North,0,5.0,10.0,26,0.00,,,0.04,meteohub,2013-05-15 19:15:00,
2013-05-15 14:20:00,76.3,38.8,29.85,West,270,11.0,11.0,26,0.00,,,0.04,meteohub,2013-05-15 19:20:00,
2013-05-15 14:26:00,76.1,37.8,29.84,NW,315,4.0,11.0,25,0.00,,,0.04,meteohub,2013-05-15 19:26:00,
2013-05-15 14:31:00,76.1,38.7,29.83,West,270,4.0,11.0,26,0.00,,,0.04,meteohub,2013-05-15 19:31:00,
2013-05-15 14:36:00,76.6,38.1,29.84,West,270,9.0,11.0,25,0.00,,,0.04,meteohub,2013-05-15 19:36:00,
2013-05-15 14:42:00,76.5,39.0,29.84,NE,45,2.0,11.0,26,0.00,,,0.04,meteohub,2013-05-15 19:42:00,
2013-05-15 14:47:00,76.6,38.1,29.84,North,0,5.0,11.0,25,0.00,,,0.04,meteohub,2013-05-15 19:47:00,
2013-05-15 14:52:00,76.3,39.9,29.84,West,270,9.0,12.0,27,0.00,,,0.04,meteohub,2013-05-15 19:52:00,
2013-05-15 14:57:00,76.3,34.7,29.84,NW,315,7.0,12.0,22,0.00,,,0.04,meteohub,2013-05-15 19:57:00,
2013-05-15 15:02:00,75.9,34.3,29.84,NW,315,6.0,12.0,22,0.00,,,0.04,meteohub,2013-05-15 20:02:00,
2013-05-15 15:07:00,75.7,35.2,29.84,North,0,6.0,11.0,23,0.00,,,0.04,meteohub,2013-05-15 20:07:00,
2013-05-15 15:12:00,76.6,37.2,29.84,North,0,11.0,11.0,24,0.00,,,0.04,meteohub,2013-05-15 20:12:00,
2013-05-15 15:17:00,77.4,38.8,29.84,NW,315,7.0,11.0,25,0.00,,,0.04,meteohub,2013-05-15 20:17:00,
2013-05-15 15:22:00,77.2,36.5,29.84,North,0,10.0,11.0,23,0.00,,,0.04,meteohub,2013-05-15 20:22:00,
2013-05-15 15:27:00,76.8,35.1,29.84,North,0,7.0,11.0,22,0.00,,,0.04,meteohub,2013-05-15 20:27:00,
2013-05-15 15:32:00,77.0,35.2,29.84,NW,315,8.0,10.0,22,0.00,,,0.04,meteohub,2013-05-15 20:32:00,
2013-05-15 15:37:00,77.4,35.6,29.84,West,270,10.0,11.0,22,0.00,,,0.04,meteohub,2013-05-15 20:37:00,
2013-05-15 15:42:00,77.0,35.2,29.84,NE,45,6.0,12.0,22,0.00,,,0.04,meteohub,2013-05-15 20:42:00,
2013-05-15 15:47:00,77.0,37.4,29.83,NW,315,11.0,12.0,24,0.00,,,0.04,meteohub,2013-05-15 20:47:00,
2013-05-15 15:53:00,77.5,37.9,29.83,SW,225,7.0,11.0,24,0.00,,,0.04,meteohub,2013-05-15 20:53:00,
2013-05-15 15:58:00,76.8,38.3,29.82,NW,315,8.0,14.0,25,0.00,,,0.04,meteohub,2013-05-15 20:58:00,
2013-05-15 16:03:00,76.5,37.0,29.83,NE,45,4.0,14.0,24,0.00,,,0.04,meteohub,2013-05-15 21:03:00,
2013-05-15 16:08:00,75.9,36.5,29.83,WSW,248,4.0,8.0,24,0.00,,,0.04,meteohub,2013-05-15 21:08:00,
2013-05-15 16:13:00,75.7,36.3,29.82,East,90,8.0,8.0,24,0.00,,,0.04,meteohub,2013-05-15 21:13:00,
2013-05-15 16:19:00,75.6,36.3,29.82,NNE,23,5.0,7.0,24,0.00,,,0.04,meteohub,2013-05-15 21:19:00,
2013-05-15 16:24:00,75.4,37.0,29.83,NNE,23,7.0,8.0,25,0.00,,,0.04,meteohub,2013-05-15 21:24:00,
2013-05-15 16:29:00,75.2,37.0,29.83,North,0,5.0,8.0,25,0.00,,,0.04,meteohub,2013-05-15 21:29:00,
2013-05-15 16:34:00,74.7,36.5,29.83,NW,315,5.0,7.0,25,0.00,,,0.04,meteohub,2013-05-15 21:34:00,
2013-05-15 16:40:00,74.3,36.1,29.84,NW,315,6.0,9.0,25,0.00,,,0.04,meteohub,2013-05-15 21:40:00,
2013-05-15 16:45:00,74.1,37.9,29.83,North,0,3.0,9.0,27,0.00,,,0.04,meteohub,2013-05-15 21:45:00,
2013-05-15 16:50:00,74.5,37.4,29.82,NW,315,4.0,9.0,26,0.00,,,0.04,meteohub,2013-05-15 21:50:00,
2013-05-15 16:56:00,74.8,36.7,29.82,North,0,5.0,9.0,25,0.00,,,0.04,meteohub,2013-05-15 21:56:00,
2013-05-15 17:01:00,74.7,36.5,29.83,NE,45,8.0,8.0,25,0.00,,,0.04,meteohub,2013-05-15 22:01:00,
2013-05-15 17:07:00,75.4,37.0,29.82,North,0,6.0,9.0,25,0.00,,,0.04,meteohub,2013-05-15 22:07:00,
2013-05-15 17:12:00,76.1,38.7,29.82,North,0,6.0,9.0,26,0.00,,,0.04,meteohub,2013-05-15 22:12:00,
2013-05-15 17:17:00,76.5,37.9,29.82,North,0,6.0,9.0,25,0.00,,,0.04,meteohub,2013-05-15 22:17:00,
2013-05-15 17:22:00,76.5,37.9,29.82,North,0,11.0,11.0,25,0.00,,,0.04,meteohub,2013-05-15 22:22:00,
2013-05-15 17:27:00,76.5,39.0,29.82,North,0,8.0,11.0,26,0.00,,,0.04,meteohub,2013-05-15 22:27:00,
2013-05-15 17:32:00,75.7,37.4,29.83,West,270,5.0,11.0,25,0.00,,,0.04,meteohub,2013-05-15 22:32:00,
2013-05-15 17:38:00,74.8,37.6,29.82,North,0,3.0,11.0,26,0.00,,,0.04,meteohub,2013-05-15 22:38:00,
2013-05-15 17:43:00,74.7,38.5,29.82,North,0,4.0,8.0,27,0.00,,,0.04,meteohub,2013-05-15 22:43:00,
2013-05-15 17:48:00,75.0,36.9,29.82,North,0,7.0,8.0,25,0.00,,,0.04,meteohub,2013-05-15 22:48:00,
2013-05-15 17:54:00,74.5,36.3,29.82,NW,315,4.0,9.0,25,0.00,,,0.04,meteohub,2013-05-15 22:54:00,
2013-05-15 17:59:00,74.8,36.7,29.82,NE,45,8.0,9.0,25,0.00,,,0.04,meteohub,2013-05-15 22:59:00,
2013-05-15 18:04:00,75.2,37.0,29.82,North,0,5.0,9.0,25,0.00,,,0.04,meteohub,2013-05-15 23:04:00,
2013-05-15 18:10:00,75.6,37.2,29.82,NE,45,4.0,11.0,25,0.00,,,0.04,meteohub,2013-05-15 23:10:00,
2013-05-15 18:15:00,75.4,37.0,29.82,NNE,23,8.0,11.0,25,0.00,,,0.04,meteohub,2013-05-15 23:15:00,
2013-05-15 18:20:00,75.4,40.1,29.82,West,270,9.0,9.0,28,0.00,,,0.04,meteohub,2013-05-15 23:20:00,
2013-05-15 18:25:00,75.6,38.3,29.82,NE,45,4.0,11.0,26,0.00,,,0.04,meteohub,2013-05-15 23:25:00,
2013-05-15 18:31:00,75.7,38.5,29.82,North,0,5.0,11.0,26,0.00,,,0.04,meteohub,2013-05-15 23:31:00,
2013-05-15 18:36:00,75.4,38.1,29.83,West,270,8.0,11.0,26,0.00,,,0.04,meteohub,2013-05-15 23:36:00,
2013-05-15 18:41:00,74.8,36.7,29.83,West,270,13.0,13.0,25,0.00,,,0.04,meteohub,2013-05-15 23:41:00,
2013-05-15 18:47:00,74.7,37.6,29.83,North,0,4.0,13.0,26,0.00,,,0.04,meteohub,2013-05-15 23:47:00,
2013-05-15 18:52:00,75.0,37.8,29.83,East,90,2.0,13.0,26,0.00,,,0.04,meteohub,2013-05-15 23:52:00,
2013-05-15 18:57:00,75.2,37.9,29.83,SE,135,4.0,13.0,26,0.00,,,0.04,meteohub,2013-05-15 23:57:00,
2013-05-15 19:02:00,75.0,37.8,29.83,West,270,3.0,11.0,26,0.00,,,0.04,meteohub,2013-05-16 00:02:00,
2013-05-15 19:07:00,74.7,36.5,29.83,West,270,8.0,11.0,25,0.00,,,0.04,meteohub,2013-05-16 00:07:00,
2013-05-15 19:12:00,74.3,37.2,29.83,SW,225,4.0,11.0,26,0.00,,,0.04,meteohub,2013-05-16 00:12:00,
2013-05-15 19:17:00,73.6,36.5,29.84,North,0,7.0,8.0,26,0.00,,,0.04,meteohub,2013-05-16 00:17:00,
2013-05-15 19:22:00,73.2,37.2,29.84,NE,45,5.0,11.0,27,0.00,,,0.04,meteohub,2013-05-16 00:22:00,
2013-05-15 19:27:00,72.7,36.9,29.84,North,0,9.0,11.0,27,0.00,,,0.04,meteohub,2013-05-16 00:27:00,
2013-05-15 19:32:00,72.3,36.5,29.84,NNW,338,7.0,11.0,27,0.00,,,0.04,meteohub,2013-05-16 00:32:00,
2013-05-15 19:37:00,72.1,36.3,29.85,NW,315,5.0,11.0,27,0.00,,,0.04,meteohub,2013-05-16 00:37:00,
2013-05-15 19:42:00,72.1,37.2,29.85,West,270,3.0,9.0,28,0.00,,,0.04,meteohub,2013-05-16 00:42:00,
2013-05-15 19:47:00,73.8,38.7,29.85,NW,315,6.0,8.0,28,0.00,,,0.04,meteohub,2013-05-16 00:47:00,
2013-05-15 19:52:00,71.8,36.9,29.85,SE,135,3.0,8.0,28,0.00,,,0.04,meteohub,2013-05-16 00:52:00,
2013-05-15 19:57:00,71.2,36.5,29.85,North,0,4.0,6.0,28,0.00,,,0.04,meteohub,2013-05-16 00:57:00,
2013-05-15 20:02:00,70.9,36.1,29.85,NNW,338,6.0,6.0,28,0.00,,,0.04,meteohub,2013-05-16 01:02:00,
2013-05-15 20:07:00,70.3,35.6,29.85,North,0,5.0,8.0,28,0.00,,,0.04,meteohub,2013-05-16 01:07:00,
2013-05-15 20:12:00,70.2,35.6,29.86,NNE,23,3.0,8.0,28,0.00,,,0.04,meteohub,2013-05-16 01:12:00,
2013-05-15 20:17:00,69.6,35.1,29.86,NW,315,3.0,8.0,28,0.00,,,0.04,meteohub,2013-05-16 01:17:00,
2013-05-15 20:22:00,69.3,34.7,29.86,North,0,4.0,6.0,28,0.00,,,0.04,meteohub,2013-05-16 01:22:00,
2013-05-15 20:27:00,69.1,34.5,29.86,North,0,5.0,5.0,28,0.00,,,0.04,meteohub,2013-05-16 01:27:00,
2013-05-15 20:33:00,68.7,34.3,29.86,North,0,4.0,5.0,28,0.00,,,0.04,meteohub,2013-05-16 01:33:00,
2013-05-15 20:38:00,68.5,35.1,29.87,North,0,3.0,5.0,29,0.00,,,0.04,meteohub,2013-05-16 01:38:00,
2013-05-15 20:44:00,68.2,34.7,29.87,East,90,4.0,5.0,29,0.00,,,0.04,meteohub,2013-05-16 01:44:00,
2013-05-15 20:49:00,68.2,34.7,29.87,NE,45,5.0,5.0,29,0.00,,,0.04,meteohub,2013-05-16 01:49:00,
2013-05-15 20:54:00,68.0,34.5,29.87,SW,225,4.0,5.0,29,0.00,,,0.04,meteohub,2013-05-16 01:54:00,
2013-05-15 20:59:00,67.8,34.3,29.88,NE,45,4.0,6.0,29,0.00,,,0.04,meteohub,2013-05-16 01:59:00,
2013-05-15 21:05:00,67.6,34.2,29.88,NNW,338,4.0,6.0,29,0.00,,,0.04,meteohub,2013-05-16 02:05:00,
2013-05-15 21:10:00,67.6,34.2,29.88,NNW,338,4.0,5.0,29,0.00,,,0.04,meteohub,2013-05-16 02:10:00,
2013-05-15 21:15:00,66.9,34.5,29.88,NE,45,4.0,4.0,30,0.00,,,0.04,meteohub,2013-05-16 02:15:00,
2013-05-15 21:20:00,66.9,34.5,29.88,North,0,3.0,4.0,30,0.00,,,0.04,meteohub,2013-05-16 02:20:00,
2013-05-15 21:26:00,66.7,34.3,29.88,NW,315,3.0,4.0,30,0.00,,,0.04,meteohub,2013-05-16 02:26:00,
2013-05-15 21:31:00,66.7,34.3,29.88,North,0,4.0,4.0,30,0.00,,,0.04,meteohub,2013-05-16 02:31:00,
2013-05-15 21:36:00,66.7,34.3,29.88,North,0,2.0,4.0,30,0.00,,,0.04,meteohub,2013-05-16 02:36:00,
2013-05-15 21:42:00,66.6,35.1,29.88,West,270,4.0,4.0,31,0.00,,,0.04,meteohub,2013-05-16 02:42:00,
2013-05-15 21:47:00,66.0,34.5,29.88,West,270,2.0,4.0,31,0.00,,,0.04,meteohub,2013-05-16 02:47:00,
2013-05-15 21:52:00,65.3,34.7,29.89,West,270,2.0,4.0,32,0.00,,,0.04,meteohub,2013-05-16 02:52:00,
2013-05-15 21:57:00,64.9,34.3,29.89,West,270,2.0,4.0,32,0.00,,,0.04,meteohub,2013-05-16 02:57:00,
2013-05-15 22:02:00,64.6,34.9,29.88,West,270,3.0,3.0,33,0.00,,,0.04,meteohub,2013-05-16 03:02:00,
2013-05-15 22:07:00,64.4,34.7,29.88,West,270,2.0,3.0,33,0.00,,,0.04,meteohub,2013-05-16 03:07:00,
2013-05-15 22:13:00,64.2,34.5,29.88,West,270,2.0,3.0,33,0.00,,,0.04,meteohub,2013-05-16 03:13:00,
2013-05-15 22:18:00,64.0,34.3,29.88,West,270,2.0,3.0,33,0.00,,,0.04,meteohub,2013-05-16 03:18:00,
2013-05-15 22:23:00,63.7,34.7,29.88,NW,315,3.0,3.0,34,0.00,,,0.04,meteohub,2013-05-16 03:23:00,
2013-05-15 22:29:00,63.5,34.7,29.88,West,270,3.0,3.0,34,0.00,,,0.04,meteohub,2013-05-16 03:29:00,
2013-05-15 22:34:00,63.5,34.7,29.88,SW,225,4.0,4.0,34,0.00,,,0.04,meteohub,2013-05-16 03:34:00,
2013-05-15 22:39:00,63.7,34.7,29.88,SW,225,4.0,4.0,34,0.00,,,0.04,meteohub,2013-05-16 03:39:00,
2013-05-15 22:44:00,63.1,35.1,29.88,NW,315,4.0,4.0,35,0.00,,,0.04,meteohub,2013-05-16 03:44:00,
2013-05-15 22:49:00,63.1,35.1,29.88,West,270,4.0,4.0,35,0.00,,,0.04,meteohub,2013-05-16 03:49:00,
2013-05-15 22:55:00,63.5,35.4,29.87,West,270,6.0,6.0,35,0.00,,,0.04,meteohub,2013-05-16 03:55:00,
2013-05-15 23:00:00,63.9,34.9,29.87,West,270,4.0,6.0,34,0.00,,,0.04,meteohub,2013-05-16 04:00:00,
2013-05-15 23:01:00,63.9,34.9,29.88,West,270,4.0,6.0,34,0.00,,,0.04,meteohub,2013-05-16 04:01:00,
2013-05-15 23:04:00,64.0,35.1,29.87,NW,315,5.0,6.0,34,0.00,,,0.04,meteohub,2013-05-16 04:04:00,
2013-05-15 23:05:00,64.0,35.1,29.88,West,270,6.0,6.0,34,0.00,,,0.04,meteohub,2013-05-16 04:05:00,
2013-05-15 23:10:00,64.6,35.6,29.88,NW,315,5.0,6.0,34,0.00,,,0.04,meteohub,2013-05-16 04:10:00,
2013-05-15 23:15:00,64.6,35.6,29.88,West,270,4.0,6.0,34,0.00,,,0.04,meteohub,2013-05-16 04:15:00,
2013-05-15 23:20:00,64.6,35.6,29.88,West,270,4.0,6.0,34,0.00,,,0.04,meteohub,2013-05-16 04:20:00,
2013-05-15 23:25:00,64.8,36.5,29.88,NE,45,5.0,6.0,35,0.00,,,0.04,meteohub,2013-05-16 04:25:00,
2013-05-15 23:30:00,64.8,36.5,29.88,East,90,2.0,5.0,35,0.00,,,0.04,meteohub,2013-05-16 04:30:00,
2013-05-15 23:35:00,64.8,36.5,29.88,NNW,338,7.0,7.0,35,0.00,,,0.04,meteohub,2013-05-16 04:35:00,
2013-05-15 23:40:00,64.8,36.5,29.88,NW,315,5.0,8.0,35,0.00,,,0.04,meteohub,2013-05-16 04:40:00,
2013-05-15 23:45:00,64.6,37.0,29.88,NW,315,4.0,8.0,36,0.00,,,0.04,meteohub,2013-05-16 04:45:00,
2013-05-15 23:50:00,64.6,37.0,29.88,West,270,5.0,8.0,36,0.00,,,0.04,meteohub,2013-05-16 04:50:00,
2013-05-15 23:55:00,64.4,36.9,29.88,West,270,5.0,6.0,36,0.00,,,0.04,meteohub,2013-05-16 04:55:00,